createdAt,value
2017-05-19T00:00:24.805Z,100594
2017-05-19T00:02:54.097Z,100587
2017-05-19T00:05:23.407Z,100545
2017-05-19T00:07:52.694Z,100592
2017-05-19T00:10:22.223Z,100579
2017-05-19T00:12:51.501Z,100590
2017-05-19T00:15:21.649Z,100576
2017-05-19T00:17:51.150Z,100580
2017-05-19T00:20:20.442Z,100577
2017-05-19T00:22:49.953Z,100579
2017-05-19T00:25:19.253Z,100577
2017-05-19T00:27:49.158Z,100576
2017-05-19T00:30:18.770Z,100505
2017-05-19T00:32:49.000Z,100576
2017-05-19T00:35:18.301Z,100573
2017-05-19T00:37:47.809Z,100572
2017-05-19T00:40:17.109Z,100563
2017-05-19T00:42:46.617Z,100558
2017-05-19T00:45:16.328Z,100549
2017-05-19T00:47:46.858Z,100564
2017-05-19T00:50:16.146Z,100569
2017-05-19T00:52:45.665Z,100271
2017-05-19T00:55:15.251Z,100568
2017-05-19T00:57:44.678Z,100557
2017-05-19T01:00:14.389Z,100561
2017-05-19T01:02:43.691Z,100553
2017-05-19T01:05:12.995Z,100564
2017-05-19T01:07:42.299Z,100567
2017-05-19T01:10:11.802Z,100561
2017-05-19T01:12:41.716Z,100566
2017-05-19T01:15:11.017Z,100571
2017-05-19T01:17:40.319Z,100579
2017-05-19T01:20:09.606Z,100578
2017-05-19T01:22:38.923Z,100574
2017-05-19T01:25:08.223Z,100578
2017-05-19T01:27:37.738Z,100581
2017-05-19T01:30:07.239Z,100573
2017-05-19T01:32:36.539Z,100570
2017-05-19T01:35:05.839Z,100576
2017-05-19T01:37:35.397Z,100576
2017-05-19T01:40:04.845Z,100570
2017-05-19T01:42:34.152Z,100574
2017-05-19T01:45:03.658Z,100568
2017-05-19T01:47:32.962Z,100571
2017-05-19T01:50:02.454Z,100567
2017-05-19T01:52:31.768Z,100563
2017-05-19T01:55:01.684Z,100555
2017-05-19T01:57:30.987Z,100555
2017-05-19T02:00:00.698Z,100561
2017-05-19T02:02:30.408Z,100558
2017-05-19T02:04:59.713Z,100565
2017-05-19T02:07:29.401Z,100560
2017-05-19T02:09:58.957Z,100562
2017-05-19T02:12:28.435Z,100564
2017-05-19T02:14:57.735Z,100545
2017-05-19T02:17:27.651Z,100538
2017-05-19T02:19:56.952Z,100531
2017-05-19T02:22:26.463Z,100535
2017-05-19T02:24:56.175Z,100537
2017-05-19T02:27:25.463Z,100531
2017-05-19T02:29:54.962Z,100537
2017-05-19T02:32:24.279Z,100520
2017-05-19T02:34:53.569Z,100518
2017-05-19T02:37:23.348Z,100510
2017-05-19T02:39:52.799Z,100516
2017-05-19T02:42:22.714Z,100513
2017-05-19T02:44:52.004Z,100503
2017-05-19T02:47:21.518Z,100513
2017-05-19T02:49:51.109Z,100508
2017-05-19T02:52:20.738Z,100507
2017-05-19T02:54:50.064Z,100498
2017-05-19T02:57:19.325Z,100496
2017-05-19T02:59:48.644Z,100428
2017-05-19T03:02:18.353Z,100487
2017-05-19T03:04:47.667Z,100498
2017-05-19T03:07:17.148Z,100498
2017-05-19T03:09:46.455Z,100500
2017-05-19T03:12:15.973Z,100492
2017-05-19T03:14:45.262Z,100504
2017-05-19T03:17:14.562Z,100494
2017-05-19T03:19:44.477Z,100499
2017-05-19T03:22:13.793Z,100497
2017-05-19T03:24:43.134Z,100494
2017-05-19T03:27:12.791Z,100502
2017-05-19T03:29:42.309Z,100499
2017-05-19T03:32:12.224Z,100499
2017-05-19T03:34:41.526Z,100499
2017-05-19T03:37:10.829Z,100497
2017-05-19T03:39:40.949Z,100502
2017-05-19T03:42:10.236Z,100492
2017-05-19T03:44:39.550Z,100499
2017-05-19T03:47:08.853Z,100503
2017-05-19T03:49:38.361Z,100503
2017-05-19T03:52:07.646Z,100502
2017-05-19T03:54:37.167Z,100513
2017-05-19T03:57:06.878Z,100499
2017-05-19T03:59:36.185Z,100504
2017-05-19T04:02:05.471Z,100498
2017-05-19T04:04:34.783Z,100500
2017-05-19T04:07:04.289Z,100504
2017-05-19T04:09:33.861Z,100507
2017-05-19T04:12:03.303Z,100507
2017-05-19T04:14:32.589Z,100509
2017-05-19T04:17:02.096Z,100507
2017-05-19T04:19:32.026Z,100498
2017-05-19T04:22:01.326Z,100510
2017-05-19T04:24:30.681Z,100509
2017-05-19T04:27:00.338Z,100511
2017-05-19T04:29:29.845Z,100511
2017-05-19T04:31:59.543Z,100514
2017-05-19T04:34:29.463Z,100523
2017-05-19T04:36:58.773Z,100515
2017-05-19T04:39:28.330Z,100523
2017-05-19T04:41:57.976Z,100533
2017-05-19T04:44:27.560Z,100530
2017-05-19T04:46:56.994Z,100524
2017-05-19T04:49:26.489Z,100525
2017-05-19T04:51:55.811Z,100531
2017-05-19T04:54:25.112Z,100537
2017-05-19T04:56:54.815Z,100537
2017-05-19T04:59:24.113Z,100531
2017-05-19T05:01:53.418Z,100529
2017-05-19T05:04:22.933Z,100529
2017-05-19T05:06:52.233Z,100542
2017-05-19T05:09:21.571Z,100534
2017-05-19T05:11:51.247Z,100532
2017-05-19T05:14:20.576Z,100528
2017-05-19T05:16:51.356Z,100519
2017-05-19T05:19:20.791Z,100525
2017-05-19T05:21:50.503Z,100531
2017-05-19T05:24:20.007Z,100528
2017-05-19T05:26:49.310Z,100516
2017-05-19T05:29:18.611Z,100517
2017-05-19T05:31:48.106Z,100527
2017-05-19T05:34:17.627Z,100519
2017-05-19T05:36:47.132Z,100515
2017-05-19T05:39:16.453Z,100516
2017-05-19T05:41:46.960Z,100515
2017-05-19T05:44:16.468Z,100521
2017-05-19T05:46:45.770Z,100508
2017-05-19T05:49:15.066Z,100520
2017-05-19T05:51:44.576Z,100521
2017-05-19T05:54:14.085Z,100512
2017-05-19T05:56:43.384Z,100509
2017-05-19T05:59:12.891Z,100520
2017-05-19T06:01:42.397Z,100514
2017-05-19T06:04:11.910Z,100519
2017-05-19T06:06:41.205Z,100521
2017-05-19T06:09:10.701Z,100511
2017-05-19T06:11:40.217Z,100511
2017-05-19T06:14:09.521Z,100508
2017-05-19T06:16:39.030Z,100507
2017-05-19T06:19:08.328Z,100511
2017-05-19T06:21:37.630Z,100503
2017-05-19T06:24:07.136Z,100502
2017-05-19T06:26:36.829Z,100507
2017-05-19T06:29:06.352Z,100501
2017-05-19T06:31:35.654Z,100507
2017-05-19T06:34:04.960Z,100499
2017-05-19T06:36:34.670Z,100502
2017-05-19T06:39:04.571Z,100502
2017-05-19T06:41:33.882Z,100493
2017-05-19T06:44:03.183Z,100500
2017-05-19T06:46:32.485Z,100497
2017-05-19T06:49:01.992Z,100502
2017-05-19T06:51:31.287Z,100503
2017-05-19T06:54:00.606Z,100493
2017-05-19T06:56:29.898Z,100496
2017-05-19T06:58:59.197Z,100490
2017-05-19T07:01:28.710Z,100497
2017-05-19T07:03:58.011Z,100490
2017-05-19T07:06:27.719Z,100486
2017-05-19T07:09:04.217Z,100495
2017-05-19T07:11:33.900Z,100486
2017-05-19T07:14:05.279Z,100487
2017-05-19T07:16:35.569Z,100481
2017-05-19T07:19:04.867Z,100484
2017-05-19T07:21:34.194Z,100483
2017-05-19T07:24:08.545Z,100483
2017-05-19T07:26:39.121Z,100484
2017-05-19T07:29:11.753Z,100483
2017-05-19T07:31:41.416Z,100487
2017-05-19T07:34:12.560Z,100481
2017-05-19T07:36:42.891Z,100481
2017-05-19T07:39:16.848Z,100476
2017-05-19T07:41:48.450Z,100477
2017-05-19T07:44:18.947Z,100476
2017-05-19T07:46:49.299Z,100488
2017-05-19T07:49:21.763Z,100480
2017-05-19T07:51:54.865Z,100488
2017-05-19T07:54:25.815Z,100469
2017-05-19T07:56:58.393Z,100480
2017-05-19T07:59:32.832Z,100474
2017-05-19T08:02:05.371Z,100477
2017-05-19T08:04:34.887Z,100474
2017-05-19T08:07:04.405Z,100471
2017-05-19T08:09:33.915Z,100484
2017-05-19T08:12:03.829Z,100480
2017-05-19T08:14:33.156Z,100484
2017-05-19T08:17:02.413Z,100488
2017-05-19T08:19:31.937Z,100480
2017-05-19T08:22:01.236Z,100480
2017-05-19T08:24:30.588Z,100488
2017-05-19T08:27:00.044Z,100479
2017-05-19T08:29:29.348Z,100472
2017-05-19T08:31:59.059Z,100468
2017-05-19T08:34:28.343Z,100466
2017-05-19T08:36:57.665Z,100469
2017-05-19T08:39:26.965Z,100482
2017-05-19T08:41:56.257Z,100476
2017-05-19T08:44:25.564Z,100480
2017-05-19T08:46:55.279Z,100484
2017-05-19T08:49:24.989Z,100490
2017-05-19T08:51:55.410Z,100496
2017-05-19T08:54:26.208Z,100502
2017-05-19T08:56:56.601Z,100499
2017-05-19T08:59:27.548Z,100499
2017-05-19T09:01:58.389Z,100495
2017-05-19T09:04:29.345Z,100495
2017-05-19T09:07:00.748Z,100485
2017-05-19T09:09:30.463Z,100481
2017-05-19T09:12:01.840Z,100489
2017-05-19T09:14:32.932Z,100488
2017-05-19T09:17:03.700Z,100498
2017-05-19T09:19:34.189Z,100501
2017-05-19T09:22:05.573Z,100500
2017-05-19T09:24:35.274Z,100498
2017-05-19T09:27:07.153Z,100499
2017-05-19T09:29:36.543Z,100504
2017-05-19T09:32:05.840Z,100505
2017-05-19T09:34:35.141Z,100500
2017-05-19T09:37:04.646Z,100504
2017-05-19T09:39:34.011Z,100501
2017-05-19T09:42:03.661Z,100494
2017-05-19T09:44:32.962Z,100494
2017-05-19T09:47:02.366Z,100503
2017-05-19T09:49:32.586Z,100507
2017-05-19T09:52:01.878Z,100505
2017-05-19T09:54:31.180Z,100500
2017-05-19T09:57:01.107Z,100502
2017-05-19T09:59:30.407Z,100502
2017-05-19T10:01:59.913Z,100501
2017-05-19T10:04:29.467Z,100499
2017-05-19T10:06:58.924Z,100509
2017-05-19T10:09:28.431Z,100507
2017-05-19T10:11:57.726Z,100518
2017-05-19T10:14:27.240Z,100528
2017-05-19T10:16:56.733Z,100531
2017-05-19T10:19:26.046Z,100526
2017-05-19T10:21:55.960Z,100515
2017-05-19T10:24:25.263Z,100523
2017-05-19T10:26:54.757Z,100509
2017-05-19T10:29:24.071Z,100501
2017-05-19T10:31:53.589Z,100492
2017-05-19T10:34:23.080Z,100499
2017-05-19T10:36:52.793Z,100495
2017-05-19T10:39:22.299Z,100509
2017-05-19T10:41:52.007Z,100507
2017-05-19T10:44:21.309Z,100496
2017-05-19T10:46:50.596Z,100502
2017-05-19T10:49:19.844Z,100496
2017-05-19T10:51:49.214Z,100508
2017-05-19T10:54:18.719Z,100513
2017-05-19T10:56:47.969Z,100513
2017-05-19T10:59:17.219Z,100523
2017-05-19T11:01:46.827Z,100527
2017-05-19T11:04:16.773Z,100533
2017-05-19T11:06:46.455Z,100519
2017-05-19T11:09:16.374Z,100525
2017-05-19T11:11:45.659Z,100516
2017-05-19T11:14:15.163Z,100519
2017-05-19T11:16:45.303Z,100519
2017-05-19T11:19:14.813Z,100520
2017-05-19T11:21:44.514Z,100507
2017-05-19T11:24:13.757Z,100504
2017-05-19T11:26:43.634Z,100500
2017-05-19T11:29:13.351Z,100493
2017-05-19T11:31:42.648Z,100498
2017-05-19T11:34:11.954Z,100513
2017-05-19T11:36:46.371Z,100515
2017-05-19T11:39:16.317Z,100516
2017-05-19T11:41:45.580Z,100508
2017-05-19T11:44:15.989Z,100510
2017-05-19T11:46:46.043Z,100504
2017-05-19T11:49:15.443Z,100492
2017-05-19T11:51:44.945Z,100486
2017-05-19T11:54:14.248Z,100480
2017-05-19T11:56:43.575Z,100475
2017-05-19T11:59:13.045Z,100484
2017-05-19T12:01:42.671Z,100497
2017-05-19T12:04:11.956Z,100501
2017-05-19T12:06:41.226Z,100499
2017-05-19T12:09:11.225Z,100499
2017-05-19T12:11:42.369Z,100494
2017-05-19T12:14:11.691Z,100485
2017-05-19T12:16:41.098Z,100495
2017-05-19T12:19:10.373Z,100490
2017-05-19T12:21:39.689Z,100481
2017-05-19T12:24:09.093Z,100485
2017-05-19T12:26:38.707Z,100472
2017-05-19T12:29:08.045Z,100493
2017-05-19T12:31:38.902Z,100497
2017-05-19T12:34:08.384Z,100499
2017-05-19T12:36:39.337Z,100507
2017-05-19T12:39:09.043Z,100504
2017-05-19T12:41:38.745Z,100505
2017-05-19T12:46:53.540Z,100531
2017-05-19T12:49:22.995Z,100534
2017-05-19T12:51:52.397Z,100543
2017-05-19T12:54:21.856Z,100537
2017-05-19T12:56:51.088Z,100535
2017-05-19T12:59:20.662Z,100529
2017-05-19T13:01:50.366Z,100542
2017-05-19T13:04:19.658Z,100555
2017-05-19T13:06:54.062Z,100566
2017-05-19T13:09:23.803Z,100564
2017-05-19T13:11:53.306Z,100562
2017-05-19T13:14:22.799Z,100567
2017-05-19T13:16:52.526Z,100562
2017-05-19T13:19:22.203Z,100560
2017-05-19T13:21:51.731Z,100546
2017-05-19T13:24:21.506Z,100535
2017-05-19T13:26:51.376Z,100521
2017-05-19T13:29:20.721Z,100514
2017-05-19T13:31:50.217Z,100525
2017-05-19T13:34:19.700Z,100525
2017-05-19T13:36:49.699Z,100534
2017-05-19T13:39:19.208Z,100542
2017-05-19T13:42:03.866Z,100540
2017-05-19T13:44:33.175Z,100523
2017-05-19T13:47:14.745Z,100517
2017-05-19T13:49:44.254Z,100520
2017-05-19T13:52:13.632Z,100525
2017-05-19T13:54:42.984Z,100524
2017-05-19T13:57:12.374Z,100525
2017-05-19T13:59:41.888Z,100390
2017-05-19T14:02:11.990Z,100527
2017-05-19T14:04:42.994Z,100511
2017-05-19T14:07:12.460Z,100527
2017-05-19T14:09:41.952Z,100523
2017-05-19T14:12:11.661Z,100525
2017-05-19T14:14:40.976Z,100516
2017-05-19T14:17:10.246Z,100528
2017-05-19T14:19:39.642Z,100515
2017-05-19T14:22:09.332Z,100539
2017-05-19T14:24:38.801Z,100530
2017-05-19T14:27:08.505Z,100528
2017-05-19T14:29:37.795Z,100525
2017-05-19T14:32:07.116Z,100520
2017-05-19T14:34:36.394Z,100513
2017-05-19T14:37:05.902Z,100520
2017-05-19T14:39:35.407Z,100520
2017-05-19T14:42:04.915Z,100517
2017-05-19T14:44:34.418Z,100511
2017-05-19T14:47:03.705Z,100510
2017-05-19T14:49:33.020Z,100513
2017-05-19T14:52:02.528Z,100505
2017-05-19T14:54:32.032Z,100500
2017-05-19T14:57:01.334Z,100501
2017-05-19T14:59:30.825Z,100506
2017-05-19T15:02:00.127Z,100510
2017-05-19T15:04:29.653Z,100515
2017-05-19T15:06:59.565Z,100514
2017-05-19T15:09:28.864Z,100518
2017-05-19T15:11:58.165Z,100506
2017-05-19T15:14:27.673Z,100499
2017-05-19T15:16:56.960Z,100501
2017-05-19T15:19:26.281Z,100506
2017-05-19T15:21:55.577Z,100513
2017-05-19T15:24:24.865Z,100514
2017-05-19T15:26:54.180Z,100512
2017-05-19T15:29:23.499Z,100508
2017-05-19T15:31:53.397Z,100494
2017-05-19T15:34:23.110Z,100502
2017-05-19T15:36:52.823Z,100491
2017-05-19T15:39:22.528Z,100493
2017-05-19T15:41:51.915Z,100499
2017-05-19T15:44:21.753Z,100489
2017-05-19T15:46:51.046Z,100482
2017-05-19T15:49:20.567Z,100481
2017-05-19T15:51:49.910Z,100487
2017-05-19T15:54:19.360Z,100488
2017-05-19T15:56:49.509Z,100488
2017-05-19T15:59:18.845Z,100493
2017-05-19T16:01:48.297Z,100484
2017-05-19T16:04:17.645Z,100483
2017-05-19T16:06:52.743Z,100486
2017-05-19T16:09:26.363Z,100490
2017-05-19T16:11:55.978Z,100489
2017-05-19T16:14:25.671Z,100483
2017-05-19T16:16:55.001Z,100492
2017-05-19T16:19:24.470Z,100484
2017-05-19T16:21:53.979Z,100487
2017-05-19T16:24:23.486Z,100490
2017-05-19T16:26:52.813Z,100481
2017-05-19T16:29:21.395Z,100490
2017-05-19T16:31:51.631Z,100504
2017-05-19T16:34:21.180Z,100486
2017-05-19T16:36:50.611Z,100499
2017-05-19T16:39:19.956Z,100488
2017-05-19T16:41:49.213Z,100493
2017-05-19T16:44:18.565Z,100493
2017-05-19T16:46:47.985Z,100503
2017-05-19T16:49:17.517Z,100519
2017-05-19T16:51:46.810Z,100515
2017-05-19T16:54:18.398Z,100523
2017-05-19T16:56:46.634Z,100532
2017-05-19T16:59:15.934Z,100521
2017-05-19T17:01:45.860Z,100540
2017-05-19T17:04:15.162Z,100549
2017-05-19T17:06:44.636Z,100548
2017-05-19T17:09:13.972Z,100548
2017-05-19T17:11:43.565Z,100535
2017-05-19T17:14:13.186Z,100537
2017-05-19T17:16:42.558Z,100533
2017-05-19T17:19:11.994Z,100535
2017-05-19T17:21:42.118Z,100543
2017-05-19T17:24:11.625Z,100559
2017-05-19T17:26:41.102Z,100549
2017-05-19T17:29:10.442Z,100552
2017-05-19T17:31:39.805Z,100544
2017-05-19T17:34:09.650Z,100540
2017-05-19T17:36:39.363Z,100537
2017-05-19T17:39:08.739Z,100535
2017-05-19T17:41:38.168Z,100532
2017-05-19T17:44:07.467Z,100537
2017-05-19T17:46:36.769Z,100536
2017-05-19T17:49:07.089Z,100280
2017-05-19T17:51:36.604Z,100540
2017-05-19T17:54:05.903Z,100550
2017-05-19T17:56:35.204Z,100552
2017-05-19T17:59:04.711Z,100550
2017-05-19T18:01:34.422Z,100539
2017-05-19T18:04:04.135Z,100536
2017-05-19T18:06:33.642Z,100536
2017-05-19T18:09:03.351Z,100547
2017-05-19T18:11:33.047Z,100536
2017-05-19T18:14:02.567Z,100533
2017-05-19T18:16:32.082Z,100547
2017-05-19T18:19:01.788Z,100548
2017-05-19T18:21:32.396Z,100557
2017-05-19T18:24:02.238Z,100550
2017-05-19T18:26:32.133Z,100551
2017-05-19T18:29:01.671Z,100564
2017-05-19T18:31:31.353Z,100573
2017-05-19T18:34:00.668Z,100571
2017-05-19T18:36:30.148Z,100575
2017-05-19T18:38:59.681Z,100547
2017-05-19T18:41:28.986Z,100550
2017-05-19T18:43:58.284Z,100583
2017-05-19T18:46:27.544Z,100619
2017-05-19T18:48:57.500Z,100610
2017-05-19T18:51:27.430Z,100608
2017-05-19T18:53:56.980Z,100592
2017-05-19T18:56:26.428Z,100583
2017-05-19T18:58:56.972Z,100592
2017-05-19T19:01:26.676Z,100623
2017-05-19T19:03:56.180Z,100636
2017-05-19T19:06:25.688Z,100674
2017-05-19T19:08:55.189Z,100692
2017-05-19T19:11:24.887Z,100721
2017-05-19T19:13:54.185Z,100735
2017-05-19T19:16:23.502Z,100767
2017-05-19T19:18:53.215Z,100804
2017-05-19T19:21:22.934Z,100846
2017-05-19T19:23:52.421Z,100847
2017-05-19T19:26:21.722Z,100812
2017-05-19T19:28:51.035Z,100797
2017-05-19T19:31:20.530Z,100764
2017-05-19T19:33:50.099Z,100737
2017-05-19T19:36:19.541Z,100741
2017-05-19T19:38:49.062Z,100743
2017-05-19T19:41:18.443Z,100729
2017-05-19T19:43:48.345Z,100708
2017-05-19T19:46:17.987Z,100713
2017-05-19T19:48:47.950Z,100712
2017-05-19T19:51:17.614Z,100708
2017-05-19T19:53:47.131Z,100709
2017-05-19T19:56:16.424Z,100703
2017-05-19T19:58:45.724Z,100697
2017-05-19T20:01:15.234Z,100675
2017-05-19T20:03:44.533Z,100707
2017-05-19T20:06:14.332Z,100691
2017-05-19T20:08:43.772Z,100690
2017-05-19T20:11:13.240Z,100707
2017-05-19T20:13:44.098Z,100698
2017-05-19T20:16:13.477Z,100704
2017-05-19T20:18:42.804Z,100716
2017-05-19T20:21:12.297Z,100737
2017-05-19T20:23:41.805Z,100726
2017-05-19T20:26:11.116Z,100759
2017-05-19T20:28:40.826Z,100755
2017-05-19T20:31:10.309Z,100771
2017-05-19T20:33:39.716Z,100802
2017-05-19T20:36:09.222Z,100823
2017-05-19T20:38:38.647Z,100833
2017-05-19T20:41:08.154Z,100818
2017-05-19T20:43:37.450Z,100807
2017-05-19T20:46:06.949Z,100816
2017-05-19T20:48:36.863Z,100825
2017-05-19T20:51:06.368Z,100803
2017-05-19T20:53:35.881Z,100777
2017-05-19T20:56:05.128Z,100763
2017-05-19T20:58:34.492Z,100758
2017-05-19T21:01:03.999Z,100762
2017-05-19T21:03:33.492Z,100775
2017-05-19T21:06:02.807Z,100783
2017-05-19T21:08:32.319Z,100775
2017-05-19T21:11:02.232Z,100777
2017-05-19T21:13:31.529Z,100795
2017-05-19T21:16:01.036Z,100799
2017-05-19T21:18:30.556Z,100778
2017-05-19T21:21:00.252Z,100747
2017-05-19T21:23:29.637Z,100727
2017-05-19T21:25:59.060Z,100696
2017-05-19T21:28:28.361Z,100741
2017-05-19T21:30:58.063Z,100769
2017-05-19T21:33:27.478Z,100789
2017-05-19T21:35:56.984Z,100802
2017-05-19T21:38:26.500Z,100814
2017-05-19T21:40:55.984Z,100795
2017-05-19T21:43:25.270Z,100780
2017-05-19T21:45:54.803Z,100747
2017-05-19T21:48:24.107Z,100730
2017-05-19T21:50:53.825Z,100737
2017-05-19T21:53:23.502Z,100742
2017-05-19T21:55:52.831Z,100744
2017-05-19T21:58:22.341Z,100748
2017-05-19T22:00:52.231Z,100757
2017-05-19T22:03:21.844Z,100771
2017-05-19T22:05:51.347Z,100763
2017-05-19T22:08:20.771Z,100769
2017-05-19T22:10:50.066Z,100779
2017-05-19T22:13:19.754Z,100767
2017-05-19T22:15:49.503Z,100746
2017-05-19T22:18:18.898Z,100759
2017-05-19T22:20:48.276Z,100764
2017-05-19T22:23:17.606Z,100769
2017-05-19T22:25:47.727Z,100757
2017-05-19T22:28:17.027Z,100757
2017-05-19T22:30:46.330Z,100761
2017-05-19T22:33:16.045Z,100765
2017-05-19T22:35:45.484Z,100757
2017-05-19T22:38:15.050Z,100758
2017-05-19T22:40:44.629Z,100771
2017-05-19T22:43:14.171Z,100772
2017-05-19T22:45:43.572Z,100784
2017-05-19T22:48:12.872Z,100793
2017-05-19T22:50:42.173Z,100778
2017-05-19T22:53:12.294Z,100770
2017-05-19T22:55:41.800Z,100768
2017-05-19T22:58:11.107Z,100771
2017-05-19T23:00:40.815Z,100768
2017-05-19T23:03:10.319Z,100753
2017-05-19T23:05:39.622Z,100752
2017-05-19T23:08:09.130Z,100760
2017-05-19T23:10:38.433Z,100758
2017-05-19T23:13:07.938Z,100762
2017-05-19T23:15:37.441Z,100765
2017-05-19T23:18:07.346Z,100773
2017-05-19T23:20:36.652Z,100790
2017-05-19T23:23:05.946Z,100809
2017-05-19T23:25:35.262Z,100809
2017-05-19T23:28:04.564Z,100831
2017-05-19T23:30:34.073Z,100835
2017-05-19T23:33:03.594Z,100815
2017-05-19T23:35:33.054Z,100800
2017-05-19T23:38:02.386Z,100788
2017-05-19T23:41:34.762Z,100797
2017-05-19T23:44:04.479Z,100810
2017-05-19T23:46:33.760Z,100816
2017-05-19T23:49:03.181Z,100834
2017-05-19T23:51:32.585Z,100846
2017-05-19T23:54:02.085Z,100832
2017-05-19T23:56:31.393Z,100830
2017-05-19T23:59:00.697Z,100844
